sensor_id;sensor_type;location;lat;lon;timestamp;P1;durP1;ratioP1;P2;durP2;ratioP2
81996;SDS011;71500;50.806;8.774;2023-10-08T00:01:13;8.50;;;5.40;;
81996;SDS011;71500;50.806;8.774;2023-10-08T00:06:18;6.00;;;3.30;;
81996;SDS011;71500;50.806;8.774;2023-10-08T00:08:50;13.10;;;9.80;;
81996;SDS011;71500;50.806;8.774;2023-10-08T00:11:28;16.40;;;10.70;;
81996;SDS011;71500;50.806;8.774;2023-10-08T00:14:00;12.70;;;8.80;;
81996;SDS011;71500;50.806;8.774;2023-10-08T00:16:33;11.70;;;8.40;;
81996;SDS011;71500;50.806;8.774;2023-10-08T00:19:08;11.40;;;8.10;;
81996;SDS011;71500;50.806;8.774;2023-10-08T00:21:43;11.40;;;7.40;;
81996;SDS011;71500;50.806;8.774;2023-10-08T00:24:16;10.00;;;6.80;;
81996;SDS011;71500;50.806;8.774;2023-10-08T00:26:52;9.70;;;6.90;;
81996;SDS011;71500;50.806;8.774;2023-10-08T00:29:24;10.30;;;6.30;;
81996;SDS011;71500;50.806;8.774;2023-10-08T00:32:00;9.20;;;6.30;;
81996;SDS011;71500;50.806;8.774;2023-10-08T00:34:41;9.10;;;6.30;;
81996;SDS011;71500;50.806;8.774;2023-10-08T00:37:12;9.40;;;5.40;;
81996;SDS011;71500;50.806;8.774;2023-10-08T00:39:44;8.20;;;3.30;;
81996;SDS011;71500;50.806;8.774;2023-10-08T00:42:15;6.80;;;3.50;;
81996;SDS011;71500;50.806;8.774;2023-10-08T00:44:47;7.10;;;3.80;;
81996;SDS011;71500;50.806;8.774;2023-10-08T00:47:20;7.50;;;3.70;;
81996;SDS011;71500;50.806;8.774;2023-10-08T00:49:55;4.40;;;2.70;;
81996;SDS011;71500;50.806;8.774;2023-10-08T00:52:36;6.40;;;3.80;;
81996;SDS011;71500;50.806;8.774;2023-10-08T00:55:11;10.30;;;3.90;;
81996;SDS011;71500;50.806;8.774;2023-10-08T00:57:53;7.60;;;3.20;;
81996;SDS011;71500;50.806;8.774;2023-10-08T01:00:36;6.90;;;3.10;;
81996;SDS011;71500;50.806;8.774;2023-10-08T01:03:10;6.90;;;3.20;;
81996;SDS011;71500;50.806;8.774;2023-10-08T01:05:46;6.70;;;4.30;;
81996;SDS011;71500;50.806;8.774;2023-10-08T01:08:18;7.60;;;3.90;;
81996;SDS011;71500;50.806;8.774;2023-10-08T01:13:50;7.10;;;4.20;;
81996;SDS011;71500;50.806;8.774;2023-10-08T01:16:23;6.20;;;3.40;;
81996;SDS011;71500;50.806;8.774;2023-10-08T01:18:56;7.00;;;3.60;;
81996;SDS011;71500;50.806;8.774;2023-10-08T01:21:29;5.60;;;3.30;;
81996;SDS011;71500;50.806;8.774;2023-10-08T01:24:03;6.80;;;3.80;;
81996;SDS011;71500;50.806;8.774;2023-10-08T01:26:36;9.50;;;4.50;;
81996;SDS011;71500;50.806;8.774;2023-10-08T01:29:12;8.40;;;4.40;;
81996;SDS011;71500;50.806;8.774;2023-10-08T01:31:49;7.60;;;4.10;;
81996;SDS011;71500;50.806;8.774;2023-10-08T01:34:21;8.20;;;4.40;;
81996;SDS011;71500;50.806;8.774;2023-10-08T01:36:56;8.20;;;4.80;;
81996;SDS011;71500;50.806;8.774;2023-10-08T01:39:33;10.70;;;5.40;;
81996;SDS011;71500;50.806;8.774;2023-10-08T01:42:05;9.80;;;5.30;;
81996;SDS011;71500;50.806;8.774;2023-10-08T01:44:43;7.40;;;4.20;;
81996;SDS011;71500;50.806;8.774;2023-10-08T01:47:17;7.20;;;4.20;;
81996;SDS011;71500;50.806;8.774;2023-10-08T01:49:49;7.90;;;4.40;;
81996;SDS011;71500;50.806;8.774;2023-10-08T01:52:27;6.70;;;3.90;;
81996;SDS011;71500;50.806;8.774;2023-10-08T01:54:58;7.70;;;3.80;;
81996;SDS011;71500;50.806;8.774;2023-10-08T02:00:01;6.40;;;4.00;;
81996;SDS011;71500;50.806;8.774;2023-10-08T02:02:37;7.50;;;4.50;;
81996;SDS011;71500;50.806;8.774;2023-10-08T02:05:10;8.80;;;5.00;;
81996;SDS011;71500;50.806;8.774;2023-10-08T02:07:44;7.90;;;4.40;;
81996;SDS011;71500;50.806;8.774;2023-10-08T02:10:15;9.00;;;4.00;;
81996;SDS011;71500;50.806;8.774;2023-10-08T02:12:47;8.60;;;5.00;;
81996;SDS011;71500;50.806;8.774;2023-10-08T02:15:18;5.50;;;3.20;;
81996;SDS011;71500;50.806;8.774;2023-10-08T02:17:50;6.20;;;3.70;;
81996;SDS011;71500;50.806;8.774;2023-10-08T02:20:23;6.90;;;3.70;;
81996;SDS011;71500;50.806;8.774;2023-10-08T02:22:56;7.00;;;3.00;;
81996;SDS011;71500;50.806;8.774;2023-10-08T02:25:29;6.50;;;3.00;;
81996;SDS011;71500;50.806;8.774;2023-10-08T02:28:01;6.70;;;3.50;;
81996;SDS011;71500;50.806;8.774;2023-10-08T02:33:04;5.70;;;3.20;;
81996;SDS011;71500;50.806;8.774;2023-10-08T02:35:43;6.70;;;3.10;;
81996;SDS011;71500;50.806;8.774;2023-10-08T02:38:16;5.60;;;3.30;;
81996;SDS011;71500;50.806;8.774;2023-10-08T02:40:50;5.70;;;3.60;;
81996;SDS011;71500;50.806;8.774;2023-10-08T02:43:25;6.50;;;3.50;;
81996;SDS011;71500;50.806;8.774;2023-10-08T02:45:59;5.70;;;2.80;;
81996;SDS011;71500;50.806;8.774;2023-10-08T02:48:30;6.00;;;2.90;;
81996;SDS011;71500;50.806;8.774;2023-10-08T02:51:03;7.20;;;3.30;;
81996;SDS011;71500;50.806;8.774;2023-10-08T02:53:43;5.40;;;2.70;;
81996;SDS011;71500;50.806;8.774;2023-10-08T02:56:15;6.60;;;3.10;;
81996;SDS011;71500;50.806;8.774;2023-10-08T02:58:47;6.50;;;3.50;;
81996;SDS011;71500;50.806;8.774;2023-10-08T03:01:18;8.40;;;3.30;;
81996;SDS011;71500;50.806;8.774;2023-10-08T03:03:50;5.50;;;3.10;;
81996;SDS011;71500;50.806;8.774;2023-10-08T03:06:30;7.20;;;4.10;;
81996;SDS011;71500;50.806;8.774;2023-10-08T03:09:02;6.20;;;2.90;;
81996;SDS011;71500;50.806;8.774;2023-10-08T03:11:34;5.40;;;3.10;;
81996;SDS011;71500;50.806;8.774;2023-10-08T03:14:05;7.60;;;3.70;;
81996;SDS011;71500;50.806;8.774;2023-10-08T03:16:43;6.20;;;3.10;;
81996;SDS011;71500;50.806;8.774;2023-10-08T03:19:17;5.90;;;3.40;;
81996;SDS011;71500;50.806;8.774;2023-10-08T03:21:50;6.30;;;3.00;;
81996;SDS011;71500;50.806;8.774;2023-10-08T03:24:24;5.50;;;3.10;;
81996;SDS011;71500;50.806;8.774;2023-10-08T03:27:07;6.80;;;3.40;;
81996;SDS011;71500;50.806;8.774;2023-10-08T03:29:48;5.40;;;3.00;;
81996;SDS011;71500;50.806;8.774;2023-10-08T03:32:23;5.70;;;3.20;;
81996;SDS011;71500;50.806;8.774;2023-10-08T03:34:55;7.00;;;3.80;;
81996;SDS011;71500;50.806;8.774;2023-10-08T03:37:27;7.50;;;4.10;;
81996;SDS011;71500;50.806;8.774;2023-10-08T03:40:10;6.80;;;3.60;;
81996;SDS011;71500;50.806;8.774;2023-10-08T03:42:55;5.50;;;3.40;;
81996;SDS011;71500;50.806;8.774;2023-10-08T03:45:27;5.20;;;3.20;;
81996;SDS011;71500;50.806;8.774;2023-10-08T03:48:12;7.90;;;4.00;;
81996;SDS011;71500;50.806;8.774;2023-10-08T03:50:44;6.40;;;3.40;;
81996;SDS011;71500;50.806;8.774;2023-10-08T03:53:25;4.20;;;3.10;;
81996;SDS011;71500;50.806;8.774;2023-10-08T03:55:59;6.70;;;3.40;;
81996;SDS011;71500;50.806;8.774;2023-10-08T03:58:34;7.20;;;3.70;;
81996;SDS011;71500;50.806;8.774;2023-10-08T04:01:10;7.20;;;3.70;;
81996;SDS011;71500;50.806;8.774;2023-10-08T04:03:47;5.90;;;3.00;;
81996;SDS011;71500;50.806;8.774;2023-10-08T04:06:28;5.50;;;3.10;;
81996;SDS011;71500;50.806;8.774;2023-10-08T04:09:06;7.30;;;3.60;;
81996;SDS011;71500;50.806;8.774;2023-10-08T04:11:52;6.00;;;3.40;;
81996;SDS011;71500;50.806;8.774;2023-10-08T04:14:32;6.10;;;3.80;;
81996;SDS011;71500;50.806;8.774;2023-10-08T04:17:03;6.50;;;3.40;;
81996;SDS011;71500;50.806;8.774;2023-10-08T04:19:37;5.90;;;3.20;;
81996;SDS011;71500;50.806;8.774;2023-10-08T04:22:09;6.90;;;3.50;;
81996;SDS011;71500;50.806;8.774;2023-10-08T04:24:44;7.50;;;3.90;;
81996;SDS011;71500;50.806;8.774;2023-10-08T04:27:16;8.70;;;3.70;;
81996;SDS011;71500;50.806;8.774;2023-10-08T04:29:50;7.00;;;2.80;;
81996;SDS011;71500;50.806;8.774;2023-10-08T04:32:22;8.90;;;3.90;;
81996;SDS011;71500;50.806;8.774;2023-10-08T04:34:54;5.00;;;3.20;;
81996;SDS011;71500;50.806;8.774;2023-10-08T04:37:26;5.20;;;3.40;;
81996;SDS011;71500;50.806;8.774;2023-10-08T04:40:01;5.50;;;3.10;;
81996;SDS011;71500;50.806;8.774;2023-10-08T04:42:44;6.40;;;3.60;;
81996;SDS011;71500;50.806;8.774;2023-10-08T04:45:17;7.20;;;3.10;;
81996;SDS011;71500;50.806;8.774;2023-10-08T04:47:55;7.70;;;3.70;;
81996;SDS011;71500;50.806;8.774;2023-10-08T04:52:59;7.00;;;3.40;;
81996;SDS011;71500;50.806;8.774;2023-10-08T04:55:36;7.30;;;4.30;;
81996;SDS011;71500;50.806;8.774;2023-10-08T04:58:16;5.30;;;3.30;;
81996;SDS011;71500;50.806;8.774;2023-10-08T05:00:58;7.10;;;3.50;;
81996;SDS011;71500;50.806;8.774;2023-10-08T05:03:46;5.00;;;3.30;;
81996;SDS011;71500;50.806;8.774;2023-10-08T05:06:46;7.70;;;3.50;;
81996;SDS011;71500;50.806;8.774;2023-10-08T05:09:29;5.10;;;3.30;;
81996;SDS011;71500;50.806;8.774;2023-10-08T05:12:16;6.40;;;3.40;;
81996;SDS011;71500;50.806;8.774;2023-10-08T05:15:07;7.00;;;3.60;;
81996;SDS011;71500;50.806;8.774;2023-10-08T05:18:02;7.20;;;3.80;;
81996;SDS011;71500;50.806;8.774;2023-10-08T05:20:52;6.00;;;3.30;;
81996;SDS011;71500;50.806;8.774;2023-10-08T05:23:33;6.00;;;3.50;;
81996;SDS011;71500;50.806;8.774;2023-10-08T05:26:18;5.90;;;4.00;;
81996;SDS011;71500;50.806;8.774;2023-10-08T05:28:59;6.70;;;3.70;;
81996;SDS011;71500;50.806;8.774;2023-10-08T05:31:51;6.60;;;3.30;;
81996;SDS011;71500;50.806;8.774;2023-10-08T05:34:43;6.20;;;3.40;;
81996;SDS011;71500;50.806;8.774;2023-10-08T05:37:42;5.30;;;3.20;;
81996;SDS011;71500;50.806;8.774;2023-10-08T05:43:23;5.60;;;2.70;;
81996;SDS011;71500;50.806;8.774;2023-10-08T05:46:18;7.00;;;3.70;;
81996;SDS011;71500;50.806;8.774;2023-10-08T05:49:03;6.70;;;3.80;;
81996;SDS011;71500;50.806;8.774;2023-10-08T05:51:55;8.80;;;3.60;;
81996;SDS011;71500;50.806;8.774;2023-10-08T05:54:40;6.40;;;3.10;;
81996;SDS011;71500;50.806;8.774;2023-10-08T06:00:15;6.70;;;3.50;;
81996;SDS011;71500;50.806;8.774;2023-10-08T06:03:16;7.20;;;3.40;;
81996;SDS011;71500;50.806;8.774;2023-10-08T06:06:19;6.50;;;3.30;;
81996;SDS011;71500;50.806;8.774;2023-10-08T06:09:07;8.60;;;3.50;;
81996;SDS011;71500;50.806;8.774;2023-10-08T06:11:52;8.80;;;4.10;;
81996;SDS011;71500;50.806;8.774;2023-10-08T06:14:37;7.10;;;3.70;;
81996;SDS011;71500;50.806;8.774;2023-10-08T06:17:22;6.50;;;3.50;;
81996;SDS011;71500;50.806;8.774;2023-10-08T06:20:04;6.00;;;3.30;;
81996;SDS011;71500;50.806;8.774;2023-10-08T06:22:40;6.80;;;3.90;;
81996;SDS011;71500;50.806;8.774;2023-10-08T06:25:14;7.60;;;3.20;;
81996;SDS011;71500;50.806;8.774;2023-10-08T06:27:51;6.00;;;3.50;;
81996;SDS011;71500;50.806;8.774;2023-10-08T06:30:24;6.50;;;3.50;;
81996;SDS011;71500;50.806;8.774;2023-10-08T06:32:59;6.30;;;3.90;;
81996;SDS011;71500;50.806;8.774;2023-10-08T06:35:33;6.90;;;3.70;;
81996;SDS011;71500;50.806;8.774;2023-10-08T06:38:04;5.40;;;3.50;;
81996;SDS011;71500;50.806;8.774;2023-10-08T06:40:38;6.90;;;3.80;;
81996;SDS011;71500;50.806;8.774;2023-10-08T06:43:12;6.00;;;3.20;;
81996;SDS011;71500;50.806;8.774;2023-10-08T06:45:45;5.30;;;3.00;;
81996;SDS011;71500;50.806;8.774;2023-10-08T06:48:21;6.10;;;3.40;;
81996;SDS011;71500;50.806;8.774;2023-10-08T06:50:54;5.80;;;3.50;;
81996;SDS011;71500;50.806;8.774;2023-10-08T06:53:26;6.80;;;3.50;;
81996;SDS011;71500;50.806;8.774;2023-10-08T06:55:58;7.00;;;4.10;;
81996;SDS011;71500;50.806;8.774;2023-10-08T06:58:34;7.90;;;3.60;;
81996;SDS011;71500;50.806;8.774;2023-10-08T07:01:05;6.10;;;3.70;;
81996;SDS011;71500;50.806;8.774;2023-10-08T07:03:37;8.00;;;3.60;;
81996;SDS011;71500;50.806;8.774;2023-10-08T07:06:09;6.50;;;3.30;;
81996;SDS011;71500;50.806;8.774;2023-10-08T07:08:54;7.50;;;3.50;;
81996;SDS011;71500;50.806;8.774;2023-10-08T07:11:28;5.80;;;3.30;;
81996;SDS011;71500;50.806;8.774;2023-10-08T07:14:03;6.30;;;3.30;;
81996;SDS011;71500;50.806;8.774;2023-10-08T07:16:35;5.70;;;2.80;;
81996;SDS011;71500;50.806;8.774;2023-10-08T07:19:08;5.20;;;3.20;;
81996;SDS011;71500;50.806;8.774;2023-10-08T07:21:46;7.50;;;3.70;;
81996;SDS011;71500;50.806;8.774;2023-10-08T07:24:22;6.40;;;4.00;;
81996;SDS011;71500;50.806;8.774;2023-10-08T07:26:54;6.90;;;3.80;;
81996;SDS011;71500;50.806;8.774;2023-10-08T07:29:25;7.10;;;3.60;;
81996;SDS011;71500;50.806;8.774;2023-10-08T07:31:57;6.90;;;4.30;;
81996;SDS011;71500;50.806;8.774;2023-10-08T07:34:38;7.00;;;4.20;;
81996;SDS011;71500;50.806;8.774;2023-10-08T07:37:10;6.80;;;3.40;;
81996;SDS011;71500;50.806;8.774;2023-10-08T07:39:43;6.00;;;3.20;;
81996;SDS011;71500;50.806;8.774;2023-10-08T07:42:16;6.90;;;3.80;;
81996;SDS011;71500;50.806;8.774;2023-10-08T07:44:47;7.20;;;3.60;;
81996;SDS011;71500;50.806;8.774;2023-10-08T07:47:23;8.60;;;4.20;;
81996;SDS011;71500;50.806;8.774;2023-10-08T07:49:57;8.60;;;3.80;;
81996;SDS011;71500;50.806;8.774;2023-10-08T07:52:28;6.50;;;4.10;;
81996;SDS011;71500;50.806;8.774;2023-10-08T07:54:59;6.50;;;3.60;;
81996;SDS011;71500;50.806;8.774;2023-10-08T07:57:33;6.80;;;3.90;;
81996;SDS011;71500;50.806;8.774;2023-10-08T08:00:06;6.10;;;3.90;;
81996;SDS011;71500;50.806;8.774;2023-10-08T08:02:47;6.80;;;3.60;;
81996;SDS011;71500;50.806;8.774;2023-10-08T08:05:21;9.80;;;3.90;;
81996;SDS011;71500;50.806;8.774;2023-10-08T08:07:54;6.70;;;4.00;;
81996;SDS011;71500;50.806;8.774;2023-10-08T08:10:28;8.80;;;4.10;;
81996;SDS011;71500;50.806;8.774;2023-10-08T08:13:05;8.30;;;4.50;;
81996;SDS011;71500;50.806;8.774;2023-10-08T08:15:38;7.70;;;4.60;;
81996;SDS011;71500;50.806;8.774;2023-10-08T08:18:15;8.10;;;4.00;;
81996;SDS011;71500;50.806;8.774;2023-10-08T08:20:51;7.80;;;3.90;;
81996;SDS011;71500;50.806;8.774;2023-10-08T08:23:29;7.60;;;4.20;;
81996;SDS011;71500;50.806;8.774;2023-10-08T08:26:01;6.70;;;4.10;;
81996;SDS011;71500;50.806;8.774;2023-10-08T08:28:40;6.50;;;3.70;;
81996;SDS011;71500;50.806;8.774;2023-10-08T08:31:14;7.10;;;4.10;;
81996;SDS011;71500;50.806;8.774;2023-10-08T08:33:48;9.20;;;4.60;;
81996;SDS011;71500;50.806;8.774;2023-10-08T08:36:26;6.10;;;3.40;;
81996;SDS011;71500;50.806;8.774;2023-10-08T08:38:58;7.30;;;3.40;;
81996;SDS011;71500;50.806;8.774;2023-10-08T08:41:30;8.60;;;4.50;;
81996;SDS011;71500;50.806;8.774;2023-10-08T08:44:06;8.30;;;4.20;;
81996;SDS011;71500;50.806;8.774;2023-10-08T08:46:38;9.30;;;5.10;;
81996;SDS011;71500;50.806;8.774;2023-10-08T08:49:10;9.00;;;4.90;;
81996;SDS011;71500;50.806;8.774;2023-10-08T08:51:43;9.40;;;5.30;;
81996;SDS011;71500;50.806;8.774;2023-10-08T08:54:17;8.00;;;5.60;;
81996;SDS011;71500;50.806;8.774;2023-10-08T08:56:49;9.60;;;5.90;;
81996;SDS011;71500;50.806;8.774;2023-10-08T08:59:21;9.50;;;5.70;;
81996;SDS011;71500;50.806;8.774;2023-10-08T09:01:53;9.60;;;4.30;;
81996;SDS011;71500;50.806;8.774;2023-10-08T09:04:28;9.00;;;4.20;;
81996;SDS011;71500;50.806;8.774;2023-10-08T09:07:01;8.60;;;4.60;;
81996;SDS011;71500;50.806;8.774;2023-10-08T09:09:33;10.20;;;4.30;;
81996;SDS011;71500;50.806;8.774;2023-10-08T09:12:08;9.30;;;4.70;;
81996;SDS011;71500;50.806;8.774;2023-10-08T09:14:40;9.70;;;4.60;;
81996;SDS011;71500;50.806;8.774;2023-10-08T09:17:12;7.90;;;4.60;;
81996;SDS011;71500;50.806;8.774;2023-10-08T09:19:45;7.70;;;4.30;;
81996;SDS011;71500;50.806;8.774;2023-10-08T09:22:16;10.50;;;5.50;;
81996;SDS011;71500;50.806;8.774;2023-10-08T09:24:48;8.80;;;4.90;;
81996;SDS011;71500;50.806;8.774;2023-10-08T09:27:21;8.30;;;4.90;;
81996;SDS011;71500;50.806;8.774;2023-10-08T09:29:56;8.40;;;4.90;;
81996;SDS011;71500;50.806;8.774;2023-10-08T09:32:28;11.50;;;6.20;;
81996;SDS011;71500;50.806;8.774;2023-10-08T09:35:02;9.00;;;4.60;;
81996;SDS011;71500;50.806;8.774;2023-10-08T09:40:07;11.30;;;5.60;;
81996;SDS011;71500;50.806;8.774;2023-10-08T09:42:40;7.50;;;3.50;;
81996;SDS011;71500;50.806;8.774;2023-10-08T09:45:14;5.20;;;2.10;;
81996;SDS011;71500;50.806;8.774;2023-10-08T09:47:47;3.10;;;1.90;;
81996;SDS011;71500;50.806;8.774;2023-10-08T09:50:26;2.20;;;1.50;;
81996;SDS011;71500;50.806;8.774;2023-10-08T09:53:02;2.10;;;1.40;;
81996;SDS011;71500;50.806;8.774;2023-10-08T09:55:44;2.90;;;1.30;;
81996;SDS011;71500;50.806;8.774;2023-10-08T09:58:24;2.80;;;1.30;;
81996;SDS011;71500;50.806;8.774;2023-10-08T10:00:59;1.40;;;1.00;;
81996;SDS011;71500;50.806;8.774;2023-10-08T10:03:33;1.60;;;1.10;;
81996;SDS011;71500;50.806;8.774;2023-10-08T10:06:05;3.30;;;1.20;;
81996;SDS011;71500;50.806;8.774;2023-10-08T10:08:44;1.90;;;1.30;;
81996;SDS011;71500;50.806;8.774;2023-10-08T10:11:18;1.90;;;1.30;;
81996;SDS011;71500;50.806;8.774;2023-10-08T10:13:50;1.40;;;1.10;;
81996;SDS011;71500;50.806;8.774;2023-10-08T10:16:29;1.90;;;1.30;;
81996;SDS011;71500;50.806;8.774;2023-10-08T10:19:01;1.30;;;1.10;;
81996;SDS011;71500;50.806;8.774;2023-10-08T10:21:33;1.70;;;1.10;;
81996;SDS011;71500;50.806;8.774;2023-10-08T10:24:12;1.80;;;1.20;;
81996;SDS011;71500;50.806;8.774;2023-10-08T10:27:10;1.90;;;1.20;;
81996;SDS011;71500;50.806;8.774;2023-10-08T10:29:46;3.10;;;1.40;;
81996;SDS011;71500;50.806;8.774;2023-10-08T10:32:18;1.50;;;1.10;;
81996;SDS011;71500;50.806;8.774;2023-10-08T10:34:49;3.60;;;1.70;;
81996;SDS011;71500;50.806;8.774;2023-10-08T10:37:21;1.10;;;1.00;;
81996;SDS011;71500;50.806;8.774;2023-10-08T10:39:54;1.50;;;1.30;;
81996;SDS011;71500;50.806;8.774;2023-10-08T10:42:28;1.70;;;1.20;;
81996;SDS011;71500;50.806;8.774;2023-10-08T10:45:00;1.70;;;1.20;;
81996;SDS011;71500;50.806;8.774;2023-10-08T10:47:38;1.40;;;1.00;;
81996;SDS011;71500;50.806;8.774;2023-10-08T10:50:12;2.70;;;1.50;;
81996;SDS011;71500;50.806;8.774;2023-10-08T10:52:55;2.10;;;1.30;;
81996;SDS011;71500;50.806;8.774;2023-10-08T10:55:27;3.70;;;2.30;;
81996;SDS011;71500;50.806;8.774;2023-10-08T10:58:01;2.40;;;1.40;;
81996;SDS011;71500;50.806;8.774;2023-10-08T11:00:42;2.40;;;1.50;;
81996;SDS011;71500;50.806;8.774;2023-10-08T11:03:18;1.60;;;1.10;;
81996;SDS011;71500;50.806;8.774;2023-10-08T11:05:55;2.40;;;1.40;;
81996;SDS011;71500;50.806;8.774;2023-10-08T11:08:34;1.80;;;1.40;;
81996;SDS011;71500;50.806;8.774;2023-10-08T11:11:06;2.10;;;1.30;;
81996;SDS011;71500;50.806;8.774;2023-10-08T11:13:39;2.10;;;0.90;;
81996;SDS011;71500;50.806;8.774;2023-10-08T11:16:11;2.90;;;1.20;;
81996;SDS011;71500;50.806;8.774;2023-10-08T11:18:44;2.20;;;1.20;;
81996;SDS011;71500;50.806;8.774;2023-10-08T11:21:19;2.30;;;1.20;;
81996;SDS011;71500;50.806;8.774;2023-10-08T11:23:53;2.40;;;1.10;;
81996;SDS011;71500;50.806;8.774;2023-10-08T11:26:34;2.60;;;1.30;;
81996;SDS011;71500;50.806;8.774;2023-10-08T11:29:08;1.50;;;0.80;;
81996;SDS011;71500;50.806;8.774;2023-10-08T11:31:43;1.70;;;1.00;;
81996;SDS011;71500;50.806;8.774;2023-10-08T11:34:15;2.30;;;1.10;;
81996;SDS011;71500;50.806;8.774;2023-10-08T11:36:53;3.50;;;1.30;;
81996;SDS011;71500;50.806;8.774;2023-10-08T11:39:25;1.90;;;1.00;;
81996;SDS011;71500;50.806;8.774;2023-10-08T11:42:00;3.60;;;1.30;;
81996;SDS011;71500;50.806;8.774;2023-10-08T11:44:35;1.40;;;0.80;;
81996;SDS011;71500;50.806;8.774;2023-10-08T11:47:08;4.00;;;1.20;;
81996;SDS011;71500;50.806;8.774;2023-10-08T11:49:50;1.70;;;1.20;;
81996;SDS011;71500;50.806;8.774;2023-10-08T11:52:39;1.90;;;1.40;;
81996;SDS011;71500;50.806;8.774;2023-10-08T11:55:11;2.40;;;1.00;;
81996;SDS011;71500;50.806;8.774;2023-10-08T11:57:47;2.50;;;1.40;;
81996;SDS011;71500;50.806;8.774;2023-10-08T12:00:21;1.20;;;1.00;;
81996;SDS011;71500;50.806;8.774;2023-10-08T12:03:00;2.10;;;1.30;;
81996;SDS011;71500;50.806;8.774;2023-10-08T12:05:34;1.10;;;0.90;;
81996;SDS011;71500;50.806;8.774;2023-10-08T12:08:08;1.20;;;1.00;;
81996;SDS011;71500;50.806;8.774;2023-10-08T12:13:11;2.30;;;1.10;;
81996;SDS011;71500;50.806;8.774;2023-10-08T12:15:47;1.50;;;1.00;;
81996;SDS011;71500;50.806;8.774;2023-10-08T12:18:19;1.50;;;0.80;;
81996;SDS011;71500;50.806;8.774;2023-10-08T12:20:54;1.10;;;0.80;;
81996;SDS011;71500;50.806;8.774;2023-10-08T12:23:26;2.40;;;0.80;;
81996;SDS011;71500;50.806;8.774;2023-10-08T12:26:00;1.30;;;0.70;;
81996;SDS011;71500;50.806;8.774;2023-10-08T12:28:32;3.60;;;0.80;;
81996;SDS011;71500;50.806;8.774;2023-10-08T12:31:05;1.50;;;1.10;;
81996;SDS011;71500;50.806;8.774;2023-10-08T12:33:39;1.90;;;1.20;;
81996;SDS011;71500;50.806;8.774;2023-10-08T12:36:12;1.10;;;0.50;;
81996;SDS011;71500;50.806;8.774;2023-10-08T12:38:45;2.80;;;0.80;;
81996;SDS011;71500;50.806;8.774;2023-10-08T12:41:17;1.80;;;1.10;;
81996;SDS011;71500;50.806;8.774;2023-10-08T12:43:48;2.40;;;1.40;;
81996;SDS011;71500;50.806;8.774;2023-10-08T12:46:21;2.40;;;1.50;;
81996;SDS011;71500;50.806;8.774;2023-10-08T12:49:00;2.80;;;1.20;;
81996;SDS011;71500;50.806;8.774;2023-10-08T12:51:31;3.30;;;1.20;;
81996;SDS011;71500;50.806;8.774;2023-10-08T12:54:04;2.60;;;1.30;;
81996;SDS011;71500;50.806;8.774;2023-10-08T12:56:40;2.30;;;1.20;;
81996;SDS011;71500;50.806;8.774;2023-10-08T12:59:16;1.20;;;0.90;;
81996;SDS011;71500;50.806;8.774;2023-10-08T13:01:50;1.60;;;0.90;;
81996;SDS011;71500;50.806;8.774;2023-10-08T13:04:24;1.40;;;0.90;;
81996;SDS011;71500;50.806;8.774;2023-10-08T13:06:58;1.00;;;0.90;;
81996;SDS011;71500;50.806;8.774;2023-10-08T13:09:31;1.80;;;0.90;;
81996;SDS011;71500;50.806;8.774;2023-10-08T13:12:06;1.30;;;0.90;;
81996;SDS011;71500;50.806;8.774;2023-10-08T13:14:39;2.10;;;1.20;;
81996;SDS011;71500;50.806;8.774;2023-10-08T13:17:13;3.00;;;1.20;;
81996;SDS011;71500;50.806;8.774;2023-10-08T13:19:45;1.90;;;0.80;;
81996;SDS011;71500;50.806;8.774;2023-10-08T13:22:16;1.50;;;0.80;;
81996;SDS011;71500;50.806;8.774;2023-10-08T13:24:49;2.50;;;1.10;;
81996;SDS011;71500;50.806;8.774;2023-10-08T13:27:20;2.00;;;1.20;;
81996;SDS011;71500;50.806;8.774;2023-10-08T13:29:52;3.30;;;1.40;;
81996;SDS011;71500;50.806;8.774;2023-10-08T13:32:24;3.00;;;1.30;;
81996;SDS011;71500;50.806;8.774;2023-10-08T13:34:56;7.60;;;2.60;;
81996;SDS011;71500;50.806;8.774;2023-10-08T13:37:29;2.80;;;1.40;;
81996;SDS011;71500;50.806;8.774;2023-10-08T13:40:01;5.00;;;1.80;;
81996;SDS011;71500;50.806;8.774;2023-10-08T13:42:33;2.90;;;1.40;;
81996;SDS011;71500;50.806;8.774;2023-10-08T13:45:06;3.20;;;1.20;;
81996;SDS011;71500;50.806;8.774;2023-10-08T13:47:38;3.70;;;1.20;;
81996;SDS011;71500;50.806;8.774;2023-10-08T13:50:10;3.10;;;1.40;;
81996;SDS011;71500;50.806;8.774;2023-10-08T13:52:41;3.70;;;1.50;;
81996;SDS011;71500;50.806;8.774;2023-10-08T13:55:13;3.30;;;1.40;;
81996;SDS011;71500;50.806;8.774;2023-10-08T13:57:47;4.10;;;1.90;;
81996;SDS011;71500;50.806;8.774;2023-10-08T14:00:19;5.50;;;1.90;;
81996;SDS011;71500;50.806;8.774;2023-10-08T14:02:54;3.00;;;1.00;;
81996;SDS011;71500;50.806;8.774;2023-10-08T14:05:27;1.30;;;1.00;;
81996;SDS011;71500;50.806;8.774;2023-10-08T14:07:58;1.70;;;0.90;;
81996;SDS011;71500;50.806;8.774;2023-10-08T14:10:31;2.70;;;1.30;;
81996;SDS011;71500;50.806;8.774;2023-10-08T14:13:04;4.50;;;1.20;;
81996;SDS011;71500;50.806;8.774;2023-10-08T14:15:36;2.10;;;1.10;;
81996;SDS011;71500;50.806;8.774;2023-10-08T14:18:12;4.10;;;1.90;;
81996;SDS011;71500;50.806;8.774;2023-10-08T14:20:46;2.10;;;1.30;;
81996;SDS011;71500;50.806;8.774;2023-10-08T14:23:23;3.40;;;1.20;;
81996;SDS011;71500;50.806;8.774;2023-10-08T14:25:57;2.80;;;1.20;;
81996;SDS011;71500;50.806;8.774;2023-10-08T14:28:32;1.90;;;1.20;;
81996;SDS011;71500;50.806;8.774;2023-10-08T14:31:12;3.60;;;1.30;;
81996;SDS011;71500;50.806;8.774;2023-10-08T14:33:44;2.10;;;1.20;;
81996;SDS011;71500;50.806;8.774;2023-10-08T14:36:28;1.40;;;0.90;;
81996;SDS011;71500;50.806;8.774;2023-10-08T14:39:13;1.30;;;0.90;;
81996;SDS011;71500;50.806;8.774;2023-10-08T14:41:58;4.00;;;1.60;;
81996;SDS011;71500;50.806;8.774;2023-10-08T14:44:49;2.70;;;1.40;;
81996;SDS011;71500;50.806;8.774;2023-10-08T14:47:20;2.80;;;1.60;;
81996;SDS011;71500;50.806;8.774;2023-10-08T14:49:52;2.30;;;1.30;;
81996;SDS011;71500;50.806;8.774;2023-10-08T14:52:24;1.20;;;1.00;;
81996;SDS011;71500;50.806;8.774;2023-10-08T14:54:55;2.90;;;1.40;;
81996;SDS011;71500;50.806;8.774;2023-10-08T14:57:26;2.70;;;1.40;;
81996;SDS011;71500;50.806;8.774;2023-10-08T14:59:58;2.10;;;1.30;;
81996;SDS011;71500;50.806;8.774;2023-10-08T15:02:33;3.00;;;1.90;;
81996;SDS011;71500;50.806;8.774;2023-10-08T15:05:06;4.70;;;2.20;;
81996;SDS011;71500;50.806;8.774;2023-10-08T15:07:39;2.70;;;1.80;;
81996;SDS011;71500;50.806;8.774;2023-10-08T15:10:11;2.50;;;1.70;;
81996;SDS011;71500;50.806;8.774;2023-10-08T15:12:43;4.70;;;2.50;;
81996;SDS011;71500;50.806;8.774;2023-10-08T15:15:16;3.40;;;2.20;;
81996;SDS011;71500;50.806;8.774;2023-10-08T15:17:48;2.60;;;1.60;;
81996;SDS011;71500;50.806;8.774;2023-10-08T15:20:21;3.50;;;1.40;;
81996;SDS011;71500;50.806;8.774;2023-10-08T15:22:53;3.00;;;1.60;;
81996;SDS011;71500;50.806;8.774;2023-10-08T15:25:24;4.50;;;2.20;;
81996;SDS011;71500;50.806;8.774;2023-10-08T15:27:56;3.50;;;2.30;;
81996;SDS011;71500;50.806;8.774;2023-10-08T15:30:27;6.60;;;3.50;;
81996;SDS011;71500;50.806;8.774;2023-10-08T15:33:01;5.60;;;3.10;;
81996;SDS011;71500;50.806;8.774;2023-10-08T15:35:32;5.40;;;2.40;;
81996;SDS011;71500;50.806;8.774;2023-10-08T15:38:04;3.80;;;1.70;;
81996;SDS011;71500;50.806;8.774;2023-10-08T15:40:35;4.50;;;2.00;;
81996;SDS011;71500;50.806;8.774;2023-10-08T15:43:07;4.10;;;2.30;;
81996;SDS011;71500;50.806;8.774;2023-10-08T15:45:38;4.50;;;2.30;;
81996;SDS011;71500;50.806;8.774;2023-10-08T15:48:10;2.70;;;2.00;;
81996;SDS011;71500;50.806;8.774;2023-10-08T15:50:41;6.40;;;4.40;;
81996;SDS011;71500;50.806;8.774;2023-10-08T15:53:13;3.50;;;2.40;;
81996;SDS011;71500;50.806;8.774;2023-10-08T15:55:44;3.00;;;1.90;;
81996;SDS011;71500;50.806;8.774;2023-10-08T15:58:15;7.30;;;4.50;;
81996;SDS011;71500;50.806;8.774;2023-10-08T16:00:47;6.90;;;4.10;;